sensor_id;sensor_type;location;lat;lon;timestamp;P1;durP1;ratioP1;P2;durP2;ratioP2
4939;SDS011;2485;49.326;7.214;2022-12-07T00:02:22;13.60;;;6.60;;
4939;SDS011;2485;49.326;7.214;2022-12-07T00:04:49;17.63;;;7.90;;
4939;SDS011;2485;49.326;7.214;2022-12-07T00:07:15;14.67;;;7.67;;
4939;SDS011;2485;49.326;7.214;2022-12-07T00:09:41;13.87;;;6.97;;
4939;SDS011;2485;49.326;7.214;2022-12-07T00:12:08;10.97;;;7.30;;
4939;SDS011;2485;49.326;7.214;2022-12-07T00:14:34;16.30;;;8.87;;
4939;SDS011;2485;49.326;7.214;2022-12-07T00:17:00;12.33;;;7.33;;
4939;SDS011;2485;49.326;7.214;2022-12-07T00:19:28;12.67;;;6.67;;
4939;SDS011;2485;49.326;7.214;2022-12-07T00:21:54;12.70;;;6.70;;
4939;SDS011;2485;49.326;7.214;2022-12-07T00:24:21;11.60;;;6.50;;
4939;SDS011;2485;49.326;7.214;2022-12-07T00:26:47;17.70;;;7.13;;
4939;SDS011;2485;49.326;7.214;2022-12-07T00:29:15;13.07;;;7.40;;
4939;SDS011;2485;49.326;7.214;2022-12-07T00:31:42;13.87;;;7.40;;
4939;SDS011;2485;49.326;7.214;2022-12-07T00:34:11;11.77;;;7.23;;
4939;SDS011;2485;49.326;7.214;2022-12-07T00:36:40;13.17;;;7.40;;
4939;SDS011;2485;49.326;7.214;2022-12-07T00:39:06;13.00;;;7.37;;
4939;SDS011;2485;49.326;7.214;2022-12-07T00:41:35;14.50;;;7.70;;
4939;SDS011;2485;49.326;7.214;2022-12-07T00:44:02;13.50;;;7.70;;
4939;SDS011;2485;49.326;7.214;2022-12-07T00:46:28;12.60;;;7.20;;
4939;SDS011;2485;49.326;7.214;2022-12-07T00:48:55;12.70;;;7.73;;
4939;SDS011;2485;49.326;7.214;2022-12-07T00:51:22;13.67;;;7.47;;
4939;SDS011;2485;49.326;7.214;2022-12-07T00:53:50;15.60;;;8.10;;
4939;SDS011;2485;49.326;7.214;2022-12-07T00:56:17;11.97;;;7.30;;
4939;SDS011;2485;49.326;7.214;2022-12-07T00:58:44;12.77;;;6.80;;
4939;SDS011;2485;49.326;7.214;2022-12-07T01:01:15;14.03;;;8.40;;
4939;SDS011;2485;49.326;7.214;2022-12-07T01:03:41;15.73;;;9.57;;
4939;SDS011;2485;49.326;7.214;2022-12-07T01:06:08;21.20;;;10.87;;
4939;SDS011;2485;49.326;7.214;2022-12-07T01:08:34;16.67;;;9.80;;
4939;SDS011;2485;49.326;7.214;2022-12-07T01:11:02;25.73;;;10.67;;
4939;SDS011;2485;49.326;7.214;2022-12-07T01:13:29;18.23;;;8.13;;
4939;SDS011;2485;49.326;7.214;2022-12-07T01:15:56;13.07;;;7.60;;
4939;SDS011;2485;49.326;7.214;2022-12-07T01:18:24;12.90;;;7.97;;
4939;SDS011;2485;49.326;7.214;2022-12-07T01:20:57;13.50;;;7.30;;
4939;SDS011;2485;49.326;7.214;2022-12-07T01:23:24;12.53;;;7.57;;
4939;SDS011;2485;49.326;7.214;2022-12-07T01:25:53;12.93;;;7.37;;
4939;SDS011;2485;49.326;7.214;2022-12-07T01:28:21;13.43;;;7.57;;
4939;SDS011;2485;49.326;7.214;2022-12-07T01:30:54;14.77;;;7.27;;
4939;SDS011;2485;49.326;7.214;2022-12-07T01:33:20;14.13;;;8.47;;
4939;SDS011;2485;49.326;7.214;2022-12-07T01:35:46;12.03;;;6.97;;
4939;SDS011;2485;49.326;7.214;2022-12-07T01:38:13;19.40;;;9.43;;
4939;SDS011;2485;49.326;7.214;2022-12-07T01:40:39;15.20;;;7.30;;
4939;SDS011;2485;49.326;7.214;2022-12-07T01:43:08;14.83;;;7.30;;
4939;SDS011;2485;49.326;7.214;2022-12-07T01:45:40;13.20;;;7.30;;
4939;SDS011;2485;49.326;7.214;2022-12-07T01:48:07;15.80;;;8.07;;
4939;SDS011;2485;49.326;7.214;2022-12-07T01:50:35;14.83;;;7.93;;
4939;SDS011;2485;49.326;7.214;2022-12-07T01:53:02;14.17;;;7.87;;
4939;SDS011;2485;49.326;7.214;2022-12-07T01:55:30;11.40;;;7.10;;
4939;SDS011;2485;49.326;7.214;2022-12-07T01:57:57;18.37;;;8.20;;
4939;SDS011;2485;49.326;7.214;2022-12-07T02:00:23;11.40;;;7.00;;
4939;SDS011;2485;49.326;7.214;2022-12-07T02:02:53;16.50;;;8.23;;
4939;SDS011;2485;49.326;7.214;2022-12-07T02:05:21;12.83;;;7.80;;
4939;SDS011;2485;49.326;7.214;2022-12-07T02:07:49;14.27;;;7.60;;
4939;SDS011;2485;49.326;7.214;2022-12-07T02:10:17;13.80;;;7.27;;
4939;SDS011;2485;49.326;7.214;2022-12-07T02:12:44;13.40;;;7.63;;
4939;SDS011;2485;49.326;7.214;2022-12-07T02:15:13;12.43;;;7.40;;
4939;SDS011;2485;49.326;7.214;2022-12-07T02:17:40;12.93;;;7.30;;
4939;SDS011;2485;49.326;7.214;2022-12-07T02:20:22;13.63;;;7.90;;
4939;SDS011;2485;49.326;7.214;2022-12-07T02:23:07;12.53;;;7.43;;
4939;SDS011;2485;49.326;7.214;2022-12-07T02:25:55;13.73;;;7.33;;
4939;SDS011;2485;49.326;7.214;2022-12-07T02:28:26;14.50;;;7.37;;
4939;SDS011;2485;49.326;7.214;2022-12-07T02:30:58;14.43;;;7.60;;
4939;SDS011;2485;49.326;7.214;2022-12-07T02:33:28;14.30;;;7.70;;
4939;SDS011;2485;49.326;7.214;2022-12-07T02:35:56;15.90;;;7.80;;
4939;SDS011;2485;49.326;7.214;2022-12-07T02:38:26;12.30;;;7.57;;
4939;SDS011;2485;49.326;7.214;2022-12-07T02:40:57;14.80;;;7.93;;
4939;SDS011;2485;49.326;7.214;2022-12-07T02:43:24;13.40;;;7.87;;
4939;SDS011;2485;49.326;7.214;2022-12-07T02:45:51;12.67;;;7.70;;
4939;SDS011;2485;49.326;7.214;2022-12-07T02:48:19;16.00;;;7.80;;
4939;SDS011;2485;49.326;7.214;2022-12-07T02:50:48;16.97;;;8.53;;
4939;SDS011;2485;49.326;7.214;2022-12-07T02:53:31;18.80;;;8.60;;
4939;SDS011;2485;49.326;7.214;2022-12-07T02:55:57;15.20;;;8.60;;
4939;SDS011;2485;49.326;7.214;2022-12-07T02:58:28;16.57;;;8.53;;
4939;SDS011;2485;49.326;7.214;2022-12-07T03:01:01;19.83;;;9.00;;
4939;SDS011;2485;49.326;7.214;2022-12-07T03:03:31;16.27;;;8.33;;
4939;SDS011;2485;49.326;7.214;2022-12-07T03:06:00;16.17;;;8.70;;
4939;SDS011;2485;49.326;7.214;2022-12-07T03:08:30;17.67;;;9.80;;
4939;SDS011;2485;49.326;7.214;2022-12-07T03:11:00;16.57;;;9.80;;
4939;SDS011;2485;49.326;7.214;2022-12-07T03:13:28;20.70;;;8.60;;
4939;SDS011;2485;49.326;7.214;2022-12-07T03:15:58;14.20;;;8.10;;
4939;SDS011;2485;49.326;7.214;2022-12-07T03:18:28;14.97;;;8.20;;
4939;SDS011;2485;49.326;7.214;2022-12-07T03:20:58;14.63;;;8.00;;
4939;SDS011;2485;49.326;7.214;2022-12-07T03:23:27;14.73;;;8.93;;
4939;SDS011;2485;49.326;7.214;2022-12-07T03:25:55;18.63;;;10.10;;
4939;SDS011;2485;49.326;7.214;2022-12-07T03:28:26;16.07;;;8.40;;
4939;SDS011;2485;49.326;7.214;2022-12-07T03:30:56;18.67;;;8.67;;
4939;SDS011;2485;49.326;7.214;2022-12-07T03:33:24;14.87;;;7.90;;
4939;SDS011;2485;49.326;7.214;2022-12-07T03:35:52;15.00;;;7.77;;
4939;SDS011;2485;49.326;7.214;2022-12-07T03:38:25;16.77;;;8.73;;
4939;SDS011;2485;49.326;7.214;2022-12-07T03:40:54;14.73;;;8.17;;
4939;SDS011;2485;49.326;7.214;2022-12-07T03:43:23;14.27;;;8.33;;
4939;SDS011;2485;49.326;7.214;2022-12-07T03:45:51;17.53;;;8.40;;
4939;SDS011;2485;49.326;7.214;2022-12-07T03:48:24;16.50;;;8.37;;
4939;SDS011;2485;49.326;7.214;2022-12-07T03:50:52;24.63;;;9.60;;
4939;SDS011;2485;49.326;7.214;2022-12-07T03:53:21;23.00;;;9.97;;
4939;SDS011;2485;49.326;7.214;2022-12-07T03:55:50;18.50;;;9.90;;
4939;SDS011;2485;49.326;7.214;2022-12-07T03:58:19;23.37;;;9.97;;
4939;SDS011;2485;49.326;7.214;2022-12-07T04:00:46;24.73;;;10.90;;
4939;SDS011;2485;49.326;7.214;2022-12-07T04:03:13;25.77;;;10.63;;
4939;SDS011;2485;49.326;7.214;2022-12-07T04:05:39;24.83;;;11.03;;
4939;SDS011;2485;49.326;7.214;2022-12-07T04:08:06;23.60;;;11.37;;
4939;SDS011;2485;49.326;7.214;2022-12-07T04:10:33;22.53;;;13.37;;
4939;SDS011;2485;49.326;7.214;2022-12-07T04:13:00;29.23;;;12.43;;
4939;SDS011;2485;49.326;7.214;2022-12-07T04:15:27;24.47;;;11.03;;
4939;SDS011;2485;49.326;7.214;2022-12-07T04:17:53;30.37;;;12.47;;
4939;SDS011;2485;49.326;7.214;2022-12-07T04:20:20;24.30;;;13.30;;
4939;SDS011;2485;49.326;7.214;2022-12-07T04:22:47;25.80;;;12.27;;
4939;SDS011;2485;49.326;7.214;2022-12-07T04:25:13;26.13;;;11.70;;
4939;SDS011;2485;49.326;7.214;2022-12-07T04:27:41;28.47;;;12.20;;
4939;SDS011;2485;49.326;7.214;2022-12-07T04:30:09;24.90;;;12.13;;
4939;SDS011;2485;49.326;7.214;2022-12-07T04:32:36;24.10;;;11.73;;
4939;SDS011;2485;49.326;7.214;2022-12-07T04:35:02;21.77;;;11.50;;
4939;SDS011;2485;49.326;7.214;2022-12-07T04:37:29;23.93;;;10.17;;
4939;SDS011;2485;49.326;7.214;2022-12-07T04:39:55;22.20;;;10.33;;
4939;SDS011;2485;49.326;7.214;2022-12-07T04:42:22;23.80;;;11.20;;
4939;SDS011;2485;49.326;7.214;2022-12-07T04:44:48;24.57;;;11.30;;
4939;SDS011;2485;49.326;7.214;2022-12-07T04:47:17;25.93;;;11.47;;
4939;SDS011;2485;49.326;7.214;2022-12-07T04:49:43;22.73;;;12.23;;
4939;SDS011;2485;49.326;7.214;2022-12-07T04:52:09;23.43;;;11.27;;
4939;SDS011;2485;49.326;7.214;2022-12-07T04:54:36;23.70;;;10.37;;
4939;SDS011;2485;49.326;7.214;2022-12-07T04:57:02;24.03;;;11.20;;
4939;SDS011;2485;49.326;7.214;2022-12-07T04:59:29;22.53;;;10.80;;
4939;SDS011;2485;49.326;7.214;2022-12-07T05:01:55;22.93;;;11.50;;
4939;SDS011;2485;49.326;7.214;2022-12-07T05:04:23;24.93;;;12.10;;
4939;SDS011;2485;49.326;7.214;2022-12-07T05:06:49;23.10;;;11.20;;
4939;SDS011;2485;49.326;7.214;2022-12-07T05:09:18;26.80;;;12.00;;
4939;SDS011;2485;49.326;7.214;2022-12-07T05:11:45;21.30;;;10.57;;
4939;SDS011;2485;49.326;7.214;2022-12-07T05:14:12;22.93;;;11.13;;
4939;SDS011;2485;49.326;7.214;2022-12-07T05:16:39;23.87;;;11.10;;
4939;SDS011;2485;49.326;7.214;2022-12-07T05:19:06;20.60;;;11.00;;
4939;SDS011;2485;49.326;7.214;2022-12-07T05:21:34;28.70;;;10.60;;
4939;SDS011;2485;49.326;7.214;2022-12-07T05:24:00;27.13;;;13.17;;
4939;SDS011;2485;49.326;7.214;2022-12-07T05:26:27;38.87;;;15.00;;
4939;SDS011;2485;49.326;7.214;2022-12-07T05:28:54;26.20;;;13.97;;
4939;SDS011;2485;49.326;7.214;2022-12-07T05:31:20;39.07;;;17.27;;
4939;SDS011;2485;49.326;7.214;2022-12-07T05:33:47;35.97;;;15.17;;
4939;SDS011;2485;49.326;7.214;2022-12-07T05:36:13;55.63;;;20.20;;
4939;SDS011;2485;49.326;7.214;2022-12-07T05:38:41;26.03;;;12.40;;
4939;SDS011;2485;49.326;7.214;2022-12-07T05:41:08;28.90;;;12.47;;
4939;SDS011;2485;49.326;7.214;2022-12-07T05:43:54;25.40;;;13.20;;
4939;SDS011;2485;49.326;7.214;2022-12-07T05:46:21;26.23;;;12.37;;
4939;SDS011;2485;49.326;7.214;2022-12-07T05:48:47;31.20;;;14.50;;
4939;SDS011;2485;49.326;7.214;2022-12-07T05:51:14;28.17;;;13.50;;
4939;SDS011;2485;49.326;7.214;2022-12-07T05:53:41;25.70;;;10.93;;
4939;SDS011;2485;49.326;7.214;2022-12-07T05:56:08;20.40;;;9.93;;
4939;SDS011;2485;49.326;7.214;2022-12-07T05:58:34;23.67;;;12.20;;
4939;SDS011;2485;49.326;7.214;2022-12-07T06:01:18;27.30;;;13.00;;
4939;SDS011;2485;49.326;7.214;2022-12-07T06:03:44;24.67;;;12.00;;
4939;SDS011;2485;49.326;7.214;2022-12-07T06:06:11;27.10;;;12.27;;
4939;SDS011;2485;49.326;7.214;2022-12-07T06:08:37;25.37;;;11.70;;
4939;SDS011;2485;49.326;7.214;2022-12-07T06:11:05;30.37;;;12.80;;
4939;SDS011;2485;49.326;7.214;2022-12-07T06:13:48;31.73;;;14.10;;
4939;SDS011;2485;49.326;7.214;2022-12-07T06:16:18;27.33;;;13.63;;
4939;SDS011;2485;49.326;7.214;2022-12-07T06:18:46;50.67;;;24.00;;
4939;SDS011;2485;49.326;7.214;2022-12-07T06:21:13;42.33;;;18.97;;
4939;SDS011;2485;49.326;7.214;2022-12-07T06:23:39;24.47;;;12.00;;
4939;SDS011;2485;49.326;7.214;2022-12-07T06:26:07;26.10;;;13.80;;
4939;SDS011;2485;49.326;7.214;2022-12-07T06:28:33;23.60;;;12.17;;
4939;SDS011;2485;49.326;7.214;2022-12-07T06:31:00;30.00;;;14.20;;
4939;SDS011;2485;49.326;7.214;2022-12-07T06:33:29;29.00;;;14.20;;
4939;SDS011;2485;49.326;7.214;2022-12-07T06:35:55;28.87;;;13.80;;
4939;SDS011;2485;49.326;7.214;2022-12-07T06:38:21;26.43;;;13.90;;
4939;SDS011;2485;49.326;7.214;2022-12-07T06:40:48;26.33;;;12.50;;
4939;SDS011;2485;49.326;7.214;2022-12-07T06:43:15;29.97;;;13.77;;
4939;SDS011;2485;49.326;7.214;2022-12-07T06:45:42;25.77;;;13.00;;
4939;SDS011;2485;49.326;7.214;2022-12-07T06:48:08;27.13;;;14.40;;
4939;SDS011;2485;49.326;7.214;2022-12-07T06:50:35;23.60;;;13.03;;
4939;SDS011;2485;49.326;7.214;2022-12-07T06:53:01;22.90;;;12.00;;
4939;SDS011;2485;49.326;7.214;2022-12-07T06:55:27;22.83;;;12.27;;
4939;SDS011;2485;49.326;7.214;2022-12-07T06:57:54;24.50;;;11.93;;
4939;SDS011;2485;49.326;7.214;2022-12-07T07:00:22;28.77;;;12.90;;
4939;SDS011;2485;49.326;7.214;2022-12-07T07:02:48;22.07;;;11.33;;
4939;SDS011;2485;49.326;7.214;2022-12-07T07:05:14;23.83;;;11.80;;
4939;SDS011;2485;49.326;7.214;2022-12-07T07:07:44;21.97;;;11.70;;
4939;SDS011;2485;49.326;7.214;2022-12-07T07:10:11;24.43;;;11.37;;
4939;SDS011;2485;49.326;7.214;2022-12-07T07:12:37;28.43;;;11.10;;
4939;SDS011;2485;49.326;7.214;2022-12-07T07:15:04;29.30;;;11.97;;
4939;SDS011;2485;49.326;7.214;2022-12-07T07:17:32;25.40;;;11.90;;
4939;SDS011;2485;49.326;7.214;2022-12-07T07:19:58;21.93;;;10.37;;
4939;SDS011;2485;49.326;7.214;2022-12-07T07:22:24;25.30;;;11.90;;
4939;SDS011;2485;49.326;7.214;2022-12-07T07:24:51;21.13;;;10.33;;
4939;SDS011;2485;49.326;7.214;2022-12-07T07:27:20;21.97;;;11.30;;
4939;SDS011;2485;49.326;7.214;2022-12-07T07:29:46;20.10;;;10.73;;
4939;SDS011;2485;49.326;7.214;2022-12-07T07:32:12;22.57;;;11.30;;
4939;SDS011;2485;49.326;7.214;2022-12-07T07:34:40;25.67;;;12.60;;
4939;SDS011;2485;49.326;7.214;2022-12-07T07:37:06;27.00;;;11.13;;
4939;SDS011;2485;49.326;7.214;2022-12-07T07:39:33;22.60;;;11.03;;
4939;SDS011;2485;49.326;7.214;2022-12-07T07:41:59;19.13;;;10.27;;
4939;SDS011;2485;49.326;7.214;2022-12-07T07:44:25;27.60;;;10.33;;
4939;SDS011;2485;49.326;7.214;2022-12-07T07:46:52;25.43;;;11.50;;
4939;SDS011;2485;49.326;7.214;2022-12-07T07:49:18;27.97;;;10.90;;
4939;SDS011;2485;49.326;7.214;2022-12-07T07:51:46;28.33;;;11.57;;
4939;SDS011;2485;49.326;7.214;2022-12-07T07:54:12;24.60;;;12.60;;
4939;SDS011;2485;49.326;7.214;2022-12-07T07:56:38;21.80;;;11.50;;
4939;SDS011;2485;49.326;7.214;2022-12-07T07:59:05;31.80;;;13.67;;
4939;SDS011;2485;49.326;7.214;2022-12-07T08:01:31;25.37;;;12.17;;
4939;SDS011;2485;49.326;7.214;2022-12-07T08:03:57;24.77;;;11.60;;
4939;SDS011;2485;49.326;7.214;2022-12-07T08:06:24;22.20;;;12.13;;
4939;SDS011;2485;49.326;7.214;2022-12-07T08:08:52;26.63;;;11.97;;
4939;SDS011;2485;49.326;7.214;2022-12-07T08:11:18;28.57;;;11.90;;
4939;SDS011;2485;49.326;7.214;2022-12-07T08:13:44;24.80;;;12.80;;
4939;SDS011;2485;49.326;7.214;2022-12-07T08:16:11;26.13;;;13.03;;
4939;SDS011;2485;49.326;7.214;2022-12-07T08:18:38;29.10;;;13.03;;
4939;SDS011;2485;49.326;7.214;2022-12-07T08:21:05;36.20;;;13.83;;
4939;SDS011;2485;49.326;7.214;2022-12-07T08:23:32;26.63;;;13.37;;
4939;SDS011;2485;49.326;7.214;2022-12-07T08:26:01;35.60;;;13.07;;
4939;SDS011;2485;49.326;7.214;2022-12-07T08:28:27;29.03;;;13.60;;
4939;SDS011;2485;49.326;7.214;2022-12-07T08:30:58;31.20;;;14.70;;
4939;SDS011;2485;49.326;7.214;2022-12-07T08:33:24;23.60;;;13.30;;
4939;SDS011;2485;49.326;7.214;2022-12-07T08:35:51;30.97;;;14.30;;
4939;SDS011;2485;49.326;7.214;2022-12-07T08:38:17;33.17;;;14.90;;
4939;SDS011;2485;49.326;7.214;2022-12-07T08:40:43;35.53;;;14.80;;
4939;SDS011;2485;49.326;7.214;2022-12-07T08:43:11;30.30;;;14.63;;
4939;SDS011;2485;49.326;7.214;2022-12-07T08:45:37;34.80;;;17.13;;
4939;SDS011;2485;49.326;7.214;2022-12-07T08:48:06;37.57;;;17.33;;
4939;SDS011;2485;49.326;7.214;2022-12-07T08:50:34;35.50;;;17.87;;
4939;SDS011;2485;49.326;7.214;2022-12-07T08:53:02;31.53;;;15.43;;
4939;SDS011;2485;49.326;7.214;2022-12-07T08:55:29;34.80;;;14.57;;
4939;SDS011;2485;49.326;7.214;2022-12-07T08:57:56;29.93;;;15.40;;
4939;SDS011;2485;49.326;7.214;2022-12-07T09:00:24;27.40;;;13.10;;
4939;SDS011;2485;49.326;7.214;2022-12-07T09:02:51;31.03;;;14.40;;
4939;SDS011;2485;49.326;7.214;2022-12-07T09:05:17;32.67;;;14.57;;
4939;SDS011;2485;49.326;7.214;2022-12-07T09:07:44;27.80;;;13.30;;
4939;SDS011;2485;49.326;7.214;2022-12-07T09:10:11;30.17;;;14.43;;
4939;SDS011;2485;49.326;7.214;2022-12-07T09:12:38;29.33;;;14.73;;
4939;SDS011;2485;49.326;7.214;2022-12-07T09:15:04;29.60;;;14.20;;
4939;SDS011;2485;49.326;7.214;2022-12-07T09:17:33;30.73;;;15.27;;
4939;SDS011;2485;49.326;7.214;2022-12-07T09:19:59;30.80;;;13.70;;
4939;SDS011;2485;49.326;7.214;2022-12-07T09:22:28;31.70;;;15.07;;
4939;SDS011;2485;49.326;7.214;2022-12-07T09:24:54;34.93;;;15.33;;
4939;SDS011;2485;49.326;7.214;2022-12-07T09:27:20;29.47;;;15.27;;
4939;SDS011;2485;49.326;7.214;2022-12-07T09:29:50;30.20;;;16.23;;
4939;SDS011;2485;49.326;7.214;2022-12-07T09:32:16;31.53;;;15.23;;
4939;SDS011;2485;49.326;7.214;2022-12-07T09:34:44;37.17;;;15.57;;
4939;SDS011;2485;49.326;7.214;2022-12-07T09:37:11;36.37;;;16.70;;
4939;SDS011;2485;49.326;7.214;2022-12-07T09:39:37;38.40;;;19.30;;
4939;SDS011;2485;49.326;7.214;2022-12-07T09:42:04;42.70;;;17.83;;
4939;SDS011;2485;49.326;7.214;2022-12-07T09:44:32;38.27;;;18.13;;
4939;SDS011;2485;49.326;7.214;2022-12-07T09:46:58;36.13;;;18.27;;
4939;SDS011;2485;49.326;7.214;2022-12-07T09:49:25;32.87;;;18.30;;
4939;SDS011;2485;49.326;7.214;2022-12-07T09:52:00;37.33;;;16.20;;
4939;SDS011;2485;49.326;7.214;2022-12-07T09:54:27;40.67;;;17.63;;
4939;SDS011;2485;49.326;7.214;2022-12-07T09:56:56;32.27;;;17.20;;
4939;SDS011;2485;49.326;7.214;2022-12-07T09:59:22;35.70;;;16.20;;
4939;SDS011;2485;49.326;7.214;2022-12-07T10:01:49;36.23;;;15.83;;
4939;SDS011;2485;49.326;7.214;2022-12-07T10:04:16;35.87;;;18.73;;
4939;SDS011;2485;49.326;7.214;2022-12-07T10:06:43;37.73;;;16.80;;
4939;SDS011;2485;49.326;7.214;2022-12-07T10:09:12;36.50;;;17.33;;
4939;SDS011;2485;49.326;7.214;2022-12-07T10:12:03;31.27;;;14.73;;
4939;SDS011;2485;49.326;7.214;2022-12-07T10:14:30;31.63;;;15.57;;
4939;SDS011;2485;49.326;7.214;2022-12-07T10:16:57;36.77;;;17.00;;
4939;SDS011;2485;49.326;7.214;2022-12-07T10:19:24;35.17;;;16.70;;
4939;SDS011;2485;49.326;7.214;2022-12-07T10:22:04;32.60;;;15.80;;
4939;SDS011;2485;49.326;7.214;2022-12-07T10:24:32;28.63;;;14.30;;
4939;SDS011;2485;49.326;7.214;2022-12-07T10:26:58;35.20;;;16.57;;
4939;SDS011;2485;49.326;7.214;2022-12-07T10:29:27;29.47;;;14.90;;
4939;SDS011;2485;49.326;7.214;2022-12-07T10:31:55;34.60;;;15.40;;
4939;SDS011;2485;49.326;7.214;2022-12-07T10:34:23;31.97;;;15.30;;
4939;SDS011;2485;49.326;7.214;2022-12-07T10:36:50;37.40;;;15.63;;
4939;SDS011;2485;49.326;7.214;2022-12-07T10:39:17;30.30;;;15.20;;
4939;SDS011;2485;49.326;7.214;2022-12-07T10:41:53;31.00;;;14.13;;
4939;SDS011;2485;49.326;7.214;2022-12-07T10:44:22;31.53;;;14.13;;
4939;SDS011;2485;49.326;7.214;2022-12-07T10:47:01;31.20;;;14.00;;
4939;SDS011;2485;49.326;7.214;2022-12-07T10:49:47;30.13;;;13.40;;
4939;SDS011;2485;49.326;7.214;2022-12-07T10:52:18;31.47;;;14.10;;
4939;SDS011;2485;49.326;7.214;2022-12-07T10:54:55;28.43;;;14.63;;
4939;SDS011;2485;49.326;7.214;2022-12-07T10:57:34;28.13;;;14.37;;
4939;SDS011;2485;49.326;7.214;2022-12-07T11:00:09;29.43;;;14.47;;
4939;SDS011;2485;49.326;7.214;2022-12-07T11:02:55;30.30;;;14.67;;
4939;SDS011;2485;49.326;7.214;2022-12-07T11:05:24;26.37;;;13.30;;
4939;SDS011;2485;49.326;7.214;2022-12-07T11:07:55;27.80;;;12.80;;
4939;SDS011;2485;49.326;7.214;2022-12-07T11:10:25;23.23;;;12.37;;
4939;SDS011;2485;49.326;7.214;2022-12-07T11:13:00;25.00;;;12.17;;
4939;SDS011;2485;49.326;7.214;2022-12-07T11:15:31;32.60;;;15.13;;
4939;SDS011;2485;49.326;7.214;2022-12-07T11:18:01;31.60;;;13.90;;
4939;SDS011;2485;49.326;7.214;2022-12-07T11:20:34;24.20;;;12.40;;
4939;SDS011;2485;49.326;7.214;2022-12-07T11:23:03;24.63;;;11.93;;
4939;SDS011;2485;49.326;7.214;2022-12-07T11:25:34;21.77;;;10.83;;
4939;SDS011;2485;49.326;7.214;2022-12-07T11:28:13;22.90;;;10.90;;
4939;SDS011;2485;49.326;7.214;2022-12-07T11:30:45;18.73;;;10.17;;
4939;SDS011;2485;49.326;7.214;2022-12-07T11:33:15;16.37;;;8.90;;
4939;SDS011;2485;49.326;7.214;2022-12-07T11:35:46;19.70;;;9.97;;
4939;SDS011;2485;49.326;7.214;2022-12-07T11:38:15;25.20;;;12.60;;
4939;SDS011;2485;49.326;7.214;2022-12-07T11:40:43;23.70;;;12.70;;
4939;SDS011;2485;49.326;7.214;2022-12-07T11:43:15;24.17;;;11.33;;
4939;SDS011;2485;49.326;7.214;2022-12-07T11:45:44;32.33;;;14.43;;
4939;SDS011;2485;49.326;7.214;2022-12-07T11:48:14;26.23;;;12.60;;
4939;SDS011;2485;49.326;7.214;2022-12-07T11:50:42;20.40;;;8.17;;
4939;SDS011;2485;49.326;7.214;2022-12-07T11:53:10;25.23;;;11.63;;
4939;SDS011;2485;49.326;7.214;2022-12-07T11:55:40;24.70;;;13.10;;
4939;SDS011;2485;49.326;7.214;2022-12-07T11:58:12;20.07;;;9.03;;
4939;SDS011;2485;49.326;7.214;2022-12-07T12:00:41;15.30;;;8.77;;
4939;SDS011;2485;49.326;7.214;2022-12-07T12:03:09;14.67;;;8.20;;
4939;SDS011;2485;49.326;7.214;2022-12-07T12:05:37;11.43;;;7.30;;
4939;SDS011;2485;49.326;7.214;2022-12-07T12:08:06;15.03;;;7.20;;
4939;SDS011;2485;49.326;7.214;2022-12-07T12:10:40;12.00;;;7.13;;
4939;SDS011;2485;49.326;7.214;2022-12-07T12:13:18;11.83;;;6.83;;
4939;SDS011;2485;49.326;7.214;2022-12-07T12:15:55;9.80;;;6.67;;
4939;SDS011;2485;49.326;7.214;2022-12-07T12:18:27;14.67;;;7.30;;
4939;SDS011;2485;49.326;7.214;2022-12-07T12:21:00;9.20;;;5.53;;
4939;SDS011;2485;49.326;7.214;2022-12-07T12:23:30;7.30;;;4.70;;
4939;SDS011;2485;49.326;7.214;2022-12-07T12:26:01;9.23;;;4.97;;
4939;SDS011;2485;49.326;7.214;2022-12-07T12:28:32;8.10;;;4.50;;
4939;SDS011;2485;49.326;7.214;2022-12-07T12:31:06;13.37;;;5.10;;
4939;SDS011;2485;49.326;7.214;2022-12-07T12:33:33;7.63;;;4.60;;
4939;SDS011;2485;49.326;7.214;2022-12-07T12:36:20;9.37;;;4.80;;
4939;SDS011;2485;49.326;7.214;2022-12-07T12:38:50;8.37;;;4.27;;
4939;SDS011;2485;49.326;7.214;2022-12-07T12:44:08;7.80;;;4.83;;
4939;SDS011;2485;49.326;7.214;2022-12-07T12:46:51;6.93;;;4.73;;
4939;SDS011;2485;49.326;7.214;2022-12-07T12:55:12;10.13;;;5.43;;
4939;SDS011;2485;49.326;7.214;2022-12-07T12:57:39;8.97;;;5.00;;
4939;SDS011;2485;49.326;7.214;2022-12-07T13:00:15;10.13;;;5.37;;
4939;SDS011;2485;49.326;7.214;2022-12-07T13:02:48;7.63;;;4.47;;
4939;SDS011;2485;49.326;7.214;2022-12-07T13:05:16;7.00;;;4.63;;
4939;SDS011;2485;49.326;7.214;2022-12-07T13:07:50;7.10;;;4.57;;
4939;SDS011;2485;49.326;7.214;2022-12-07T13:10:25;8.77;;;5.30;;
4939;SDS011;2485;49.326;7.214;2022-12-07T13:12:56;7.57;;;5.40;;
4939;SDS011;2485;49.326;7.214;2022-12-07T13:15:33;11.17;;;6.40;;
4939;SDS011;2485;49.326;7.214;2022-12-07T13:18:03;9.57;;;5.63;;
4939;SDS011;2485;49.326;7.214;2022-12-07T13:20:43;10.00;;;6.07;;
4939;SDS011;2485;49.326;7.214;2022-12-07T13:23:10;11.83;;;6.63;;
4939;SDS011;2485;49.326;7.214;2022-12-07T13:25:37;12.43;;;5.90;;
4939;SDS011;2485;49.326;7.214;2022-12-07T13:28:09;11.97;;;6.97;;
4939;SDS011;2485;49.326;7.214;2022-12-07T13:30:40;15.30;;;5.70;;
4939;SDS011;2485;49.326;7.214;2022-12-07T13:33:10;7.80;;;3.90;;
4939;SDS011;2485;49.326;7.214;2022-12-07T13:35:37;13.23;;;6.90;;
4939;SDS011;2485;49.326;7.214;2022-12-07T13:38:04;9.93;;;5.30;;
4939;SDS011;2485;49.326;7.214;2022-12-07T13:40:32;8.60;;;4.70;;
4939;SDS011;2485;49.326;7.214;2022-12-07T13:42:59;14.20;;;6.07;;
4939;SDS011;2485;49.326;7.214;2022-12-07T13:45:26;8.50;;;5.40;;
4939;SDS011;2485;49.326;7.214;2022-12-07T13:48:15;9.07;;;4.93;;
4939;SDS011;2485;49.326;7.214;2022-12-07T13:50:42;7.67;;;4.70;;
4939;SDS011;2485;49.326;7.214;2022-12-07T13:53:11;19.87;;;9.20;;
4939;SDS011;2485;49.326;7.214;2022-12-07T13:55:38;16.90;;;7.43;;
4939;SDS011;2485;49.326;7.214;2022-12-07T13:58:10;10.90;;;5.50;;
4939;SDS011;2485;49.326;7.214;2022-12-07T14:00:36;9.37;;;4.93;;
4939;SDS011;2485;49.326;7.214;2022-12-07T14:03:03;11.50;;;5.57;;
4939;SDS011;2485;49.326;7.214;2022-12-07T14:05:32;15.33;;;5.80;;
4939;SDS011;2485;49.326;7.214;2022-12-07T14:08:01;18.80;;;7.43;;
4939;SDS011;2485;49.326;7.214;2022-12-07T14:10:28;15.13;;;6.10;;
4939;SDS011;2485;49.326;7.214;2022-12-07T14:12:55;15.50;;;5.80;;
4939;SDS011;2485;49.326;7.214;2022-12-07T14:15:22;12.73;;;5.37;;
4939;SDS011;2485;49.326;7.214;2022-12-07T14:17:50;9.87;;;5.47;;
4939;SDS011;2485;49.326;7.214;2022-12-07T14:20:29;14.60;;;6.60;;
4939;SDS011;2485;49.326;7.214;2022-12-07T14:22:57;16.27;;;5.83;;
4939;SDS011;2485;49.326;7.214;2022-12-07T14:25:23;11.50;;;5.10;;
4939;SDS011;2485;49.326;7.214;2022-12-07T14:27:51;13.60;;;6.27;;
4939;SDS011;2485;49.326;7.214;2022-12-07T14:30:20;23.20;;;8.20;;
4939;SDS011;2485;49.326;7.214;2022-12-07T14:32:48;17.40;;;6.60;;
4939;SDS011;2485;49.326;7.214;2022-12-07T14:35:17;19.00;;;7.10;;
4939;SDS011;2485;49.326;7.214;2022-12-07T14:37:44;18.47;;;8.20;;
4939;SDS011;2485;49.326;7.214;2022-12-07T14:40:13;15.70;;;6.90;;
4939;SDS011;2485;49.326;7.214;2022-12-07T14:42:40;19.13;;;7.63;;
4939;SDS011;2485;49.326;7.214;2022-12-07T14:45:11;11.77;;;6.40;;
4939;SDS011;2485;49.326;7.214;2022-12-07T14:47:39;17.00;;;6.90;;
4939;SDS011;2485;49.326;7.214;2022-12-07T14:50:06;17.90;;;7.97;;
4939;SDS011;2485;49.326;7.214;2022-12-07T14:52:32;15.40;;;7.80;;
4939;SDS011;2485;49.326;7.214;2022-12-07T14:54:59;15.03;;;7.37;;
4939;SDS011;2485;49.326;7.214;2022-12-07T14:57:26;20.93;;;8.47;;
4939;SDS011;2485;49.326;7.214;2022-12-07T14:59:53;29.23;;;9.23;;
4939;SDS011;2485;49.326;7.214;2022-12-07T15:02:19;16.70;;;7.70;;
4939;SDS011;2485;49.326;7.214;2022-12-07T15:04:58;12.90;;;7.17;;
4939;SDS011;2485;49.326;7.214;2022-12-07T15:07:32;15.20;;;7.03;;
4939;SDS011;2485;49.326;7.214;2022-12-07T15:12:59;17.33;;;7.30;;
4939;SDS011;2485;49.326;7.214;2022-12-07T15:15:47;16.03;;;7.27;;
4939;SDS011;2485;49.326;7.214;2022-12-07T15:18:46;19.33;;;7.40;;